sensor_id;sensor_type;location;lat;lon;timestamp;P1;durP1;ratioP1;P2;durP2;ratioP2
71435;SDS011;59251;51.326;12.370;2024-03-22T00:00:16;18.70;;;6.37;;
71435;SDS011;59251;51.326;12.370;2024-03-22T00:02:43;15.07;;;5.38;;
71435;SDS011;59251;51.326;12.370;2024-03-22T00:05:09;16.45;;;5.70;;
71435;SDS011;59251;51.326;12.370;2024-03-22T00:07:36;15.10;;;5.73;;
71435;SDS011;59251;51.326;12.370;2024-03-22T00:10:02;14.60;;;5.60;;
71435;SDS011;59251;51.326;12.370;2024-03-22T00:12:29;16.00;;;5.82;;
71435;SDS011;59251;51.326;12.370;2024-03-22T00:14:55;15.07;;;6.03;;
71435;SDS011;59251;51.326;12.370;2024-03-22T00:17:23;15.70;;;5.50;;
71435;SDS011;59251;51.326;12.370;2024-03-22T00:19:48;16.25;;;5.78;;
71435;SDS011;59251;51.326;12.370;2024-03-22T00:22:15;17.95;;;6.03;;
71435;SDS011;59251;51.326;12.370;2024-03-22T00:24:41;19.03;;;6.27;;
71435;SDS011;59251;51.326;12.370;2024-03-22T00:27:08;17.60;;;5.82;;
71435;SDS011;59251;51.326;12.370;2024-03-22T00:29:33;17.02;;;6.05;;
71435;SDS011;59251;51.326;12.370;2024-03-22T00:32:00;16.53;;;6.17;;
71435;SDS011;59251;51.326;12.370;2024-03-22T00:34:27;16.77;;;6.05;;
71435;SDS011;59251;51.326;12.370;2024-03-22T00:36:54;18.15;;;6.25;;
71435;SDS011;59251;51.326;12.370;2024-03-22T00:39:19;19.53;;;6.50;;
71435;SDS011;59251;51.326;12.370;2024-03-22T00:41:46;17.35;;;6.95;;
71435;SDS011;59251;51.326;12.370;2024-03-22T00:44:12;16.48;;;6.45;;
71435;SDS011;59251;51.326;12.370;2024-03-22T00:46:39;18.50;;;6.60;;
71435;SDS011;59251;51.326;12.370;2024-03-22T00:49:04;17.38;;;6.20;;
71435;SDS011;59251;51.326;12.370;2024-03-22T00:51:32;19.23;;;6.72;;
71435;SDS011;59251;51.326;12.370;2024-03-22T00:53:58;23.40;;;7.57;;
71435;SDS011;59251;51.326;12.370;2024-03-22T00:56:25;19.13;;;7.07;;
71435;SDS011;59251;51.326;12.370;2024-03-22T00:58:50;19.73;;;7.78;;
71435;SDS011;59251;51.326;12.370;2024-03-22T01:01:17;23.25;;;7.93;;
71435;SDS011;59251;51.326;12.370;2024-03-22T01:03:43;22.80;;;8.27;;
71435;SDS011;59251;51.326;12.370;2024-03-22T01:06:10;21.88;;;7.35;;
71435;SDS011;59251;51.326;12.370;2024-03-22T01:08:37;20.93;;;7.07;;
71435;SDS011;59251;51.326;12.370;2024-03-22T01:11:03;22.58;;;7.90;;
71435;SDS011;59251;51.326;12.370;2024-03-22T01:13:29;22.52;;;8.20;;
71435;SDS011;59251;51.326;12.370;2024-03-22T01:15:56;23.93;;;8.20;;
71435;SDS011;59251;51.326;12.370;2024-03-22T01:18:21;20.83;;;7.93;;
71435;SDS011;59251;51.326;12.370;2024-03-22T01:20:48;21.05;;;8.50;;
71435;SDS011;59251;51.326;12.370;2024-03-22T01:23:14;26.40;;;9.48;;
71435;SDS011;59251;51.326;12.370;2024-03-22T01:25:42;21.40;;;8.47;;
71435;SDS011;59251;51.326;12.370;2024-03-22T01:28:08;25.15;;;9.35;;
71435;SDS011;59251;51.326;12.370;2024-03-22T01:30:35;25.40;;;9.40;;
71435;SDS011;59251;51.326;12.370;2024-03-22T01:33:02;23.63;;;9.35;;
71435;SDS011;59251;51.326;12.370;2024-03-22T01:35:28;25.48;;;9.25;;
71435;SDS011;59251;51.326;12.370;2024-03-22T01:37:54;26.97;;;10.43;;
71435;SDS011;59251;51.326;12.370;2024-03-22T01:40:21;29.35;;;9.95;;
71435;SDS011;59251;51.326;12.370;2024-03-22T01:42:48;23.20;;;9.47;;
71435;SDS011;59251;51.326;12.370;2024-03-22T01:45:18;27.27;;;9.98;;
71435;SDS011;59251;51.326;12.370;2024-03-22T01:47:45;29.00;;;11.27;;
71435;SDS011;59251;51.326;12.370;2024-03-22T01:50:12;29.95;;;10.52;;
71435;SDS011;59251;51.326;12.370;2024-03-22T01:52:38;24.87;;;10.87;;
71435;SDS011;59251;51.326;12.370;2024-03-22T01:55:06;26.98;;;10.13;;
71435;SDS011;59251;51.326;12.370;2024-03-22T01:57:32;24.52;;;9.82;;
71435;SDS011;59251;51.326;12.370;2024-03-22T02:00:01;26.67;;;11.05;;
71435;SDS011;59251;51.326;12.370;2024-03-22T02:02:39;30.40;;;11.13;;
71435;SDS011;59251;51.326;12.370;2024-03-22T02:05:15;27.63;;;11.40;;
71435;SDS011;59251;51.326;12.370;2024-03-22T02:07:44;28.30;;;11.43;;
71435;SDS011;59251;51.326;12.370;2024-03-22T02:10:11;33.35;;;11.82;;
71435;SDS011;59251;51.326;12.370;2024-03-22T02:12:37;33.97;;;12.35;;
71435;SDS011;59251;51.326;12.370;2024-03-22T02:15:06;34.70;;;11.55;;
71435;SDS011;59251;51.326;12.370;2024-03-22T02:17:33;31.03;;;11.20;;
71435;SDS011;59251;51.326;12.370;2024-03-22T02:20:00;30.17;;;10.98;;
71435;SDS011;59251;51.326;12.370;2024-03-22T02:22:27;29.75;;;12.07;;
71435;SDS011;59251;51.326;12.370;2024-03-22T02:24:55;32.47;;;10.77;;
71435;SDS011;59251;51.326;12.370;2024-03-22T02:27:21;29.30;;;10.38;;
71435;SDS011;59251;51.326;12.370;2024-03-22T02:29:47;32.13;;;10.83;;
71435;SDS011;59251;51.326;12.370;2024-03-22T02:32:13;27.48;;;10.55;;
71435;SDS011;59251;51.326;12.370;2024-03-22T02:34:40;31.77;;;11.65;;
71435;SDS011;59251;51.326;12.370;2024-03-22T02:37:06;27.47;;;10.23;;
71435;SDS011;59251;51.326;12.370;2024-03-22T02:39:32;28.48;;;11.35;;
71435;SDS011;59251;51.326;12.370;2024-03-22T02:41:59;29.17;;;10.82;;
71435;SDS011;59251;51.326;12.370;2024-03-22T02:44:26;24.60;;;9.70;;
71435;SDS011;59251;51.326;12.370;2024-03-22T02:46:52;24.48;;;9.43;;
71435;SDS011;59251;51.326;12.370;2024-03-22T02:49:18;28.25;;;10.68;;
71435;SDS011;59251;51.326;12.370;2024-03-22T02:51:44;28.57;;;9.93;;
71435;SDS011;59251;51.326;12.370;2024-03-22T02:54:11;29.15;;;9.77;;
71435;SDS011;59251;51.326;12.370;2024-03-22T02:56:37;27.77;;;9.73;;
71435;SDS011;59251;51.326;12.370;2024-03-22T02:59:04;27.17;;;9.98;;
71435;SDS011;59251;51.326;12.370;2024-03-22T03:01:30;26.38;;;9.75;;
71435;SDS011;59251;51.326;12.370;2024-03-22T03:03:57;26.23;;;9.63;;
71435;SDS011;59251;51.326;12.370;2024-03-22T03:06:23;22.83;;;8.47;;
71435;SDS011;59251;51.326;12.370;2024-03-22T03:08:49;25.92;;;9.65;;
71435;SDS011;59251;51.326;12.370;2024-03-22T03:11:15;28.73;;;9.60;;
71435;SDS011;59251;51.326;12.370;2024-03-22T03:13:42;24.88;;;8.98;;
71435;SDS011;59251;51.326;12.370;2024-03-22T03:16:09;23.17;;;8.83;;
71435;SDS011;59251;51.326;12.370;2024-03-22T03:18:36;22.98;;;8.40;;
71435;SDS011;59251;51.326;12.370;2024-03-22T03:21:01;20.93;;;7.27;;
71435;SDS011;59251;51.326;12.370;2024-03-22T03:23:28;21.40;;;8.20;;
71435;SDS011;59251;51.326;12.370;2024-03-22T03:25:54;19.15;;;7.15;;
71435;SDS011;59251;51.326;12.370;2024-03-22T03:28:20;20.03;;;7.23;;
71435;SDS011;59251;51.326;12.370;2024-03-22T03:30:46;19.08;;;7.03;;
71435;SDS011;59251;51.326;12.370;2024-03-22T03:33:14;18.52;;;7.20;;
71435;SDS011;59251;51.326;12.370;2024-03-22T03:35:40;19.43;;;7.30;;
71435;SDS011;59251;51.326;12.370;2024-03-22T03:38:11;15.98;;;6.90;;
71435;SDS011;59251;51.326;12.370;2024-03-22T03:40:36;20.73;;;7.25;;
71435;SDS011;59251;51.326;12.370;2024-03-22T03:43:03;15.93;;;6.90;;
71435;SDS011;59251;51.326;12.370;2024-03-22T03:45:29;18.67;;;7.20;;
71435;SDS011;59251;51.326;12.370;2024-03-22T03:47:56;16.98;;;6.13;;
71435;SDS011;59251;51.326;12.370;2024-03-22T03:50:23;17.53;;;6.47;;
71435;SDS011;59251;51.326;12.370;2024-03-22T03:52:49;20.77;;;7.10;;
71435;SDS011;59251;51.326;12.370;2024-03-22T03:55:15;18.45;;;7.00;;
71435;SDS011;59251;51.326;12.370;2024-03-22T03:57:42;17.38;;;6.65;;
71435;SDS011;59251;51.326;12.370;2024-03-22T04:00:08;15.55;;;6.80;;
71435;SDS011;59251;51.326;12.370;2024-03-22T04:02:35;17.03;;;6.33;;
71435;SDS011;59251;51.326;12.370;2024-03-22T04:05:01;17.15;;;6.90;;
71435;SDS011;59251;51.326;12.370;2024-03-22T04:07:29;16.08;;;6.10;;
71435;SDS011;59251;51.326;12.370;2024-03-22T04:09:54;18.37;;;6.40;;
71435;SDS011;59251;51.326;12.370;2024-03-22T04:12:21;16.77;;;5.95;;
71435;SDS011;59251;51.326;12.370;2024-03-22T04:14:47;15.38;;;5.70;;
71435;SDS011;59251;51.326;12.370;2024-03-22T04:17:14;15.52;;;5.85;;
71435;SDS011;59251;51.326;12.370;2024-03-22T04:19:39;14.03;;;6.47;;
71435;SDS011;59251;51.326;12.370;2024-03-22T04:22:06;16.63;;;6.57;;
71435;SDS011;59251;51.326;12.370;2024-03-22T04:24:33;15.60;;;5.93;;
71435;SDS011;59251;51.326;12.370;2024-03-22T04:27:00;18.52;;;5.85;;
71435;SDS011;59251;51.326;12.370;2024-03-22T04:29:25;16.15;;;5.88;;
71435;SDS011;59251;51.326;12.370;2024-03-22T04:31:52;13.82;;;5.80;;
71435;SDS011;59251;51.326;12.370;2024-03-22T04:34:18;15.05;;;5.43;;
71435;SDS011;59251;51.326;12.370;2024-03-22T04:36:45;13.13;;;5.25;;
71435;SDS011;59251;51.326;12.370;2024-03-22T04:39:10;16.07;;;5.83;;
71435;SDS011;59251;51.326;12.370;2024-03-22T04:41:40;12.50;;;5.30;;
71435;SDS011;59251;51.326;12.370;2024-03-22T04:44:07;13.32;;;5.22;;
71435;SDS011;59251;51.326;12.370;2024-03-22T04:46:32;13.40;;;4.67;;
71435;SDS011;59251;51.326;12.370;2024-03-22T04:48:59;15.88;;;5.50;;
71435;SDS011;59251;51.326;12.370;2024-03-22T04:51:25;13.57;;;5.53;;
71435;SDS011;59251;51.326;12.370;2024-03-22T04:53:51;15.20;;;5.78;;
71435;SDS011;59251;51.326;12.370;2024-03-22T04:56:17;12.63;;;4.88;;
71435;SDS011;59251;51.326;12.370;2024-03-22T04:58:45;12.83;;;4.73;;
71435;SDS011;59251;51.326;12.370;2024-03-22T05:01:11;12.50;;;5.00;;
71435;SDS011;59251;51.326;12.370;2024-03-22T05:03:37;10.13;;;4.40;;
71435;SDS011;59251;51.326;12.370;2024-03-22T05:06:03;11.40;;;4.43;;
71435;SDS011;59251;51.326;12.370;2024-03-22T05:08:31;13.90;;;4.43;;
71435;SDS011;59251;51.326;12.370;2024-03-22T05:10:57;13.02;;;4.72;;
71435;SDS011;59251;51.326;12.370;2024-03-22T05:13:24;13.65;;;4.28;;
71435;SDS011;59251;51.326;12.370;2024-03-22T05:15:51;11.43;;;5.23;;
71435;SDS011;59251;51.326;12.370;2024-03-22T05:18:18;11.25;;;4.65;;
71435;SDS011;59251;51.326;12.370;2024-03-22T05:20:44;12.82;;;4.35;;
71435;SDS011;59251;51.326;12.370;2024-03-22T05:23:10;13.47;;;4.63;;
71435;SDS011;59251;51.326;12.370;2024-03-22T05:25:36;12.88;;;4.40;;
71435;SDS011;59251;51.326;12.370;2024-03-22T05:28:03;13.60;;;4.22;;
71435;SDS011;59251;51.326;12.370;2024-03-22T05:30:29;14.50;;;4.90;;
71435;SDS011;59251;51.326;12.370;2024-03-22T05:32:57;14.45;;;4.60;;
71435;SDS011;59251;51.326;12.370;2024-03-22T05:35:22;14.50;;;4.32;;
71435;SDS011;59251;51.326;12.370;2024-03-22T05:37:49;14.05;;;4.45;;
71435;SDS011;59251;51.326;12.370;2024-03-22T05:40:16;14.18;;;4.10;;
71435;SDS011;59251;51.326;12.370;2024-03-22T05:42:43;11.73;;;4.13;;
71435;SDS011;59251;51.326;12.370;2024-03-22T05:45:09;9.25;;;4.00;;
71435;SDS011;59251;51.326;12.370;2024-03-22T05:47:35;12.93;;;4.60;;
71435;SDS011;59251;51.326;12.370;2024-03-22T05:50:04;11.70;;;4.50;;
71435;SDS011;59251;51.326;12.370;2024-03-22T05:52:33;9.40;;;4.43;;
71435;SDS011;59251;51.326;12.370;2024-03-22T05:54:59;12.88;;;4.72;;
71435;SDS011;59251;51.326;12.370;2024-03-22T05:57:26;11.73;;;4.18;;
71435;SDS011;59251;51.326;12.370;2024-03-22T05:59:52;10.20;;;3.53;;
71435;SDS011;59251;51.326;12.370;2024-03-22T06:02:19;9.27;;;4.10;;
71435;SDS011;59251;51.326;12.370;2024-03-22T06:04:45;11.20;;;3.97;;
71435;SDS011;59251;51.326;12.370;2024-03-22T06:07:14;14.18;;;3.75;;
71435;SDS011;59251;51.326;12.370;2024-03-22T06:09:41;10.53;;;3.80;;
71435;SDS011;59251;51.326;12.370;2024-03-22T06:12:12;9.48;;;3.17;;
71435;SDS011;59251;51.326;12.370;2024-03-22T06:14:38;11.40;;;3.45;;
71435;SDS011;59251;51.326;12.370;2024-03-22T06:17:05;10.13;;;3.70;;
71435;SDS011;59251;51.326;12.370;2024-03-22T06:19:31;8.37;;;3.00;;
71435;SDS011;59251;51.326;12.370;2024-03-22T06:21:58;13.75;;;4.03;;
71435;SDS011;59251;51.326;12.370;2024-03-22T06:24:25;12.82;;;4.50;;
71435;SDS011;59251;51.326;12.370;2024-03-22T06:26:52;13.13;;;4.30;;
71435;SDS011;59251;51.326;12.370;2024-03-22T06:29:17;10.13;;;3.85;;
71435;SDS011;59251;51.326;12.370;2024-03-22T06:31:44;11.68;;;4.20;;
71435;SDS011;59251;51.326;12.370;2024-03-22T06:34:10;10.33;;;3.47;;
71435;SDS011;59251;51.326;12.370;2024-03-22T06:36:37;11.55;;;3.63;;
71435;SDS011;59251;51.326;12.370;2024-03-22T06:39:02;11.13;;;3.63;;
71435;SDS011;59251;51.326;12.370;2024-03-22T06:41:33;14.40;;;4.10;;
71435;SDS011;59251;51.326;12.370;2024-03-22T06:43:59;10.45;;;3.53;;
71435;SDS011;59251;51.326;12.370;2024-03-22T06:46:26;9.82;;;3.80;;
71435;SDS011;59251;51.326;12.370;2024-03-22T06:48:52;14.40;;;4.32;;
71435;SDS011;59251;51.326;12.370;2024-03-22T06:51:18;13.10;;;4.17;;
71435;SDS011;59251;51.326;12.370;2024-03-22T06:53:44;13.20;;;3.90;;
71435;SDS011;59251;51.326;12.370;2024-03-22T06:56:13;16.25;;;4.32;;
71435;SDS011;59251;51.326;12.370;2024-03-22T06:58:40;12.37;;;4.70;;
71435;SDS011;59251;51.326;12.370;2024-03-22T07:01:06;12.10;;;4.00;;
71435;SDS011;59251;51.326;12.370;2024-03-22T07:03:32;17.53;;;7.63;;
71435;SDS011;59251;51.326;12.370;2024-03-22T07:05:59;12.32;;;3.95;;
71435;SDS011;59251;51.326;12.370;2024-03-22T07:08:25;12.45;;;4.05;;
71435;SDS011;59251;51.326;12.370;2024-03-22T07:10:53;13.00;;;4.28;;
71435;SDS011;59251;51.326;12.370;2024-03-22T07:13:19;10.70;;;3.95;;
71435;SDS011;59251;51.326;12.370;2024-03-22T07:15:48;11.33;;;4.30;;
71435;SDS011;59251;51.326;12.370;2024-03-22T07:18:14;11.07;;;4.75;;
71435;SDS011;59251;51.326;12.370;2024-03-22T07:20:41;12.57;;;4.40;;
71435;SDS011;59251;51.326;12.370;2024-03-22T07:23:07;12.93;;;4.13;;
71435;SDS011;59251;51.326;12.370;2024-03-22T07:25:34;16.15;;;4.65;;
71435;SDS011;59251;51.326;12.370;2024-03-22T07:27:59;12.43;;;4.23;;
71435;SDS011;59251;51.326;12.370;2024-03-22T07:30:26;10.57;;;4.10;;
71435;SDS011;59251;51.326;12.370;2024-03-22T07:32:53;12.25;;;4.55;;
71435;SDS011;59251;51.326;12.370;2024-03-22T07:35:20;11.70;;;4.20;;
71435;SDS011;59251;51.326;12.370;2024-03-22T07:37:47;13.43;;;4.63;;
71435;SDS011;59251;51.326;12.370;2024-03-22T07:40:13;13.68;;;4.90;;
71435;SDS011;59251;51.326;12.370;2024-03-22T07:42:40;13.82;;;5.40;;
71435;SDS011;59251;51.326;12.370;2024-03-22T07:45:06;13.80;;;4.53;;
71435;SDS011;59251;51.326;12.370;2024-03-22T07:47:32;13.32;;;4.75;;
71435;SDS011;59251;51.326;12.370;2024-03-22T07:50:00;15.38;;;4.95;;
71435;SDS011;59251;51.326;12.370;2024-03-22T07:52:27;14.55;;;4.90;;
71435;SDS011;59251;51.326;12.370;2024-03-22T07:54:53;14.20;;;4.70;;
71435;SDS011;59251;51.326;12.370;2024-03-22T07:57:20;14.35;;;5.00;;
71435;SDS011;59251;51.326;12.370;2024-03-22T07:59:46;13.30;;;4.50;;
71435;SDS011;59251;51.326;12.370;2024-03-22T08:02:13;13.85;;;5.32;;
71435;SDS011;59251;51.326;12.370;2024-03-22T08:04:38;12.60;;;5.15;;
71435;SDS011;59251;51.326;12.370;2024-03-22T08:07:06;13.57;;;5.55;;
71435;SDS011;59251;51.326;12.370;2024-03-22T08:09:32;13.40;;;5.57;;
71435;SDS011;59251;51.326;12.370;2024-03-22T08:11:59;14.77;;;4.60;;
71435;SDS011;59251;51.326;12.370;2024-03-22T08:14:24;17.30;;;5.82;;
71435;SDS011;59251;51.326;12.370;2024-03-22T08:16:51;14.13;;;6.13;;
71435;SDS011;59251;51.326;12.370;2024-03-22T08:19:17;14.10;;;5.68;;
71435;SDS011;59251;51.326;12.370;2024-03-22T08:21:44;15.50;;;5.65;;
71435;SDS011;59251;51.326;12.370;2024-03-22T08:24:11;15.83;;;6.53;;
71435;SDS011;59251;51.326;12.370;2024-03-22T08:26:37;15.30;;;5.40;;
71435;SDS011;59251;51.326;12.370;2024-03-22T08:29:03;19.15;;;6.22;;
71435;SDS011;59251;51.326;12.370;2024-03-22T08:31:30;16.65;;;6.40;;
71435;SDS011;59251;51.326;12.370;2024-03-22T08:33:56;16.40;;;6.85;;
71435;SDS011;59251;51.326;12.370;2024-03-22T08:36:22;18.42;;;6.53;;
71435;SDS011;59251;51.326;12.370;2024-03-22T08:38:48;18.23;;;6.45;;
71435;SDS011;59251;51.326;12.370;2024-03-22T08:41:16;19.27;;;7.55;;
71435;SDS011;59251;51.326;12.370;2024-03-22T08:43:42;15.73;;;5.63;;
71435;SDS011;59251;51.326;12.370;2024-03-22T08:46:10;16.95;;;6.05;;
71435;SDS011;59251;51.326;12.370;2024-03-22T08:48:36;18.95;;;7.63;;
71435;SDS011;59251;51.326;12.370;2024-03-22T08:51:03;21.65;;;7.75;;
71435;SDS011;59251;51.326;12.370;2024-03-22T08:53:29;23.30;;;7.18;;
71435;SDS011;59251;51.326;12.370;2024-03-22T08:55:55;20.25;;;8.65;;
71435;SDS011;59251;51.326;12.370;2024-03-22T08:58:22;19.73;;;7.35;;
71435;SDS011;59251;51.326;12.370;2024-03-22T09:00:49;19.43;;;7.40;;
71435;SDS011;59251;51.326;12.370;2024-03-22T09:03:15;16.45;;;6.18;;
71435;SDS011;59251;51.326;12.370;2024-03-22T09:05:43;22.15;;;7.90;;
71435;SDS011;59251;51.326;12.370;2024-03-22T09:08:09;20.93;;;7.73;;
71435;SDS011;59251;51.326;12.370;2024-03-22T09:10:35;20.08;;;7.00;;
71435;SDS011;59251;51.326;12.370;2024-03-22T09:13:01;20.00;;;7.65;;
71435;SDS011;59251;51.326;12.370;2024-03-22T09:15:29;19.63;;;7.68;;
71435;SDS011;59251;51.326;12.370;2024-03-22T09:17:55;19.35;;;6.85;;
71435;SDS011;59251;51.326;12.370;2024-03-22T09:20:21;21.48;;;7.97;;
71435;SDS011;59251;51.326;12.370;2024-03-22T09:22:48;18.13;;;7.25;;
71435;SDS011;59251;51.326;12.370;2024-03-22T09:25:15;23.15;;;7.88;;
71435;SDS011;59251;51.326;12.370;2024-03-22T09:27:40;16.52;;;7.20;;
71435;SDS011;59251;51.326;12.370;2024-03-22T09:30:08;18.92;;;7.82;;
71435;SDS011;59251;51.326;12.370;2024-03-22T09:32:36;16.02;;;6.25;;
71435;SDS011;59251;51.326;12.370;2024-03-22T09:35:03;18.05;;;6.30;;
71435;SDS011;59251;51.326;12.370;2024-03-22T09:37:30;17.90;;;6.60;;
71435;SDS011;59251;51.326;12.370;2024-03-22T09:39:56;16.65;;;5.75;;
71435;SDS011;59251;51.326;12.370;2024-03-22T09:42:22;15.95;;;5.88;;
71435;SDS011;59251;51.326;12.370;2024-03-22T09:44:50;14.85;;;5.47;;
71435;SDS011;59251;51.326;12.370;2024-03-22T09:47:16;19.35;;;7.75;;
71435;SDS011;59251;51.326;12.370;2024-03-22T09:49:46;17.33;;;6.35;;
71435;SDS011;59251;51.326;12.370;2024-03-22T09:52:13;14.90;;;6.28;;
71435;SDS011;59251;51.326;12.370;2024-03-22T09:54:42;16.92;;;6.10;;
71435;SDS011;59251;51.326;12.370;2024-03-22T09:57:09;15.73;;;6.07;;
71435;SDS011;59251;51.326;12.370;2024-03-22T09:59:40;15.52;;;5.97;;
71435;SDS011;59251;51.326;12.370;2024-03-22T10:02:07;17.17;;;6.05;;
71435;SDS011;59251;51.326;12.370;2024-03-22T10:04:35;13.52;;;5.05;;
71435;SDS011;59251;51.326;12.370;2024-03-22T10:07:02;13.65;;;5.13;;
71435;SDS011;59251;51.326;12.370;2024-03-22T10:09:30;15.00;;;5.90;;
71435;SDS011;59251;51.326;12.370;2024-03-22T10:11:56;17.13;;;7.00;;
71435;SDS011;59251;51.326;12.370;2024-03-22T10:14:23;14.77;;;5.35;;
71435;SDS011;59251;51.326;12.370;2024-03-22T10:16:50;14.82;;;5.63;;
71435;SDS011;59251;51.326;12.370;2024-03-22T10:19:19;14.73;;;5.57;;
71435;SDS011;59251;51.326;12.370;2024-03-22T10:21:45;13.40;;;4.80;;
71435;SDS011;59251;51.326;12.370;2024-03-22T10:24:13;12.90;;;5.28;;
71435;SDS011;59251;51.326;12.370;2024-03-22T10:26:39;12.15;;;5.28;;
71435;SDS011;59251;51.326;12.370;2024-03-22T10:29:06;16.48;;;6.15;;
71435;SDS011;59251;51.326;12.370;2024-03-22T10:31:32;14.43;;;5.30;;
71435;SDS011;59251;51.326;12.370;2024-03-22T10:34:01;12.07;;;4.53;;
71435;SDS011;59251;51.326;12.370;2024-03-22T10:36:29;13.85;;;5.47;;
71435;SDS011;59251;51.326;12.370;2024-03-22T10:38:58;13.50;;;5.30;;
71435;SDS011;59251;51.326;12.370;2024-03-22T10:41:25;15.10;;;5.22;;
71435;SDS011;59251;51.326;12.370;2024-03-22T10:43:52;11.93;;;4.33;;
71435;SDS011;59251;51.326;12.370;2024-03-22T10:46:19;14.65;;;5.60;;
71435;SDS011;59251;51.326;12.370;2024-03-22T10:48:47;13.60;;;5.28;;
71435;SDS011;59251;51.326;12.370;2024-03-22T10:51:14;11.40;;;4.45;;
71435;SDS011;59251;51.326;12.370;2024-03-22T10:53:42;13.43;;;5.30;;
71435;SDS011;59251;51.326;12.370;2024-03-22T10:56:09;14.73;;;5.45;;
71435;SDS011;59251;51.326;12.370;2024-03-22T10:58:40;13.85;;;5.00;;
71435;SDS011;59251;51.326;12.370;2024-03-22T11:01:10;12.57;;;4.13;;
71435;SDS011;59251;51.326;12.370;2024-03-22T11:03:47;15.50;;;5.32;;
71435;SDS011;59251;51.326;12.370;2024-03-22T11:06:17;13.50;;;5.03;;
71435;SDS011;59251;51.326;12.370;2024-03-22T11:08:43;13.43;;;4.85;;
71435;SDS011;59251;51.326;12.370;2024-03-22T11:11:11;14.43;;;4.95;;
71435;SDS011;59251;51.326;12.370;2024-03-22T11:13:38;12.65;;;4.95;;
71435;SDS011;59251;51.326;12.370;2024-03-22T11:16:07;15.18;;;5.65;;
71435;SDS011;59251;51.326;12.370;2024-03-22T11:18:35;15.03;;;6.10;;
71435;SDS011;59251;51.326;12.370;2024-03-22T11:21:01;15.07;;;5.85;;
71435;SDS011;59251;51.326;12.370;2024-03-22T11:23:29;14.05;;;5.57;;
71435;SDS011;59251;51.326;12.370;2024-03-22T11:25:56;15.80;;;5.93;;
71435;SDS011;59251;51.326;12.370;2024-03-22T11:28:22;12.30;;;5.25;;
71435;SDS011;59251;51.326;12.370;2024-03-22T11:30:49;15.53;;;6.30;;
71435;SDS011;59251;51.326;12.370;2024-03-22T11:33:17;15.35;;;5.80;;
71435;SDS011;59251;51.326;12.370;2024-03-22T11:35:43;16.08;;;6.40;;
71435;SDS011;59251;51.326;12.370;2024-03-22T11:38:10;18.52;;;6.70;;
71435;SDS011;59251;51.326;12.370;2024-03-22T11:40:36;17.23;;;6.80;;
71435;SDS011;59251;51.326;12.370;2024-03-22T11:43:02;15.55;;;6.22;;
71435;SDS011;59251;51.326;12.370;2024-03-22T11:45:30;16.98;;;7.03;;
71435;SDS011;59251;51.326;12.370;2024-03-22T11:48:01;16.27;;;6.70;;
71435;SDS011;59251;51.326;12.370;2024-03-22T11:50:30;15.07;;;6.20;;
71435;SDS011;59251;51.326;12.370;2024-03-22T11:52:55;16.03;;;5.90;;
71435;SDS011;59251;51.326;12.370;2024-03-22T11:55:22;16.13;;;6.60;;
71435;SDS011;59251;51.326;12.370;2024-03-22T11:57:53;17.40;;;7.20;;
71435;SDS011;59251;51.326;12.370;2024-03-22T12:00:20;18.13;;;7.50;;
71435;SDS011;59251;51.326;12.370;2024-03-22T12:02:48;17.85;;;6.78;;
71435;SDS011;59251;51.326;12.370;2024-03-22T12:05:14;17.47;;;7.13;;
71435;SDS011;59251;51.326;12.370;2024-03-22T12:07:41;18.70;;;7.38;;
71435;SDS011;59251;51.326;12.370;2024-03-22T12:10:08;16.20;;;6.70;;
71435;SDS011;59251;51.326;12.370;2024-03-22T12:12:34;18.30;;;7.57;;
71435;SDS011;59251;51.326;12.370;2024-03-22T12:15:01;19.90;;;8.63;;
71435;SDS011;59251;51.326;12.370;2024-03-22T12:17:27;16.80;;;7.80;;
71435;SDS011;59251;51.326;12.370;2024-03-22T12:19:54;18.00;;;7.68;;
71435;SDS011;59251;51.326;12.370;2024-03-22T12:22:21;17.80;;;7.63;;
71435;SDS011;59251;51.326;12.370;2024-03-22T12:24:49;19.47;;;8.10;;
71435;SDS011;59251;51.326;12.370;2024-03-22T12:27:15;18.17;;;6.63;;
71435;SDS011;59251;51.326;12.370;2024-03-22T12:29:42;15.52;;;6.55;;
71435;SDS011;59251;51.326;12.370;2024-03-22T12:32:07;22.23;;;7.72;;
71435;SDS011;59251;51.326;12.370;2024-03-22T12:34:35;20.50;;;9.63;;
71435;SDS011;59251;51.326;12.370;2024-03-22T12:37:01;22.13;;;8.80;;
71435;SDS011;59251;51.326;12.370;2024-03-22T12:39:28;19.58;;;8.77;;
71435;SDS011;59251;51.326;12.370;2024-03-22T12:41:55;19.00;;;8.20;;
71435;SDS011;59251;51.326;12.370;2024-03-22T12:44:22;19.58;;;9.07;;
71435;SDS011;59251;51.326;12.370;2024-03-22T12:46:47;22.80;;;9.70;;
71435;SDS011;59251;51.326;12.370;2024-03-22T12:49:16;19.23;;;8.30;;
71435;SDS011;59251;51.326;12.370;2024-03-22T12:51:42;19.92;;;9.90;;
71435;SDS011;59251;51.326;12.370;2024-03-22T12:54:09;18.67;;;8.75;;
71435;SDS011;59251;51.326;12.370;2024-03-22T12:56:35;18.15;;;8.80;;
71435;SDS011;59251;51.326;12.370;2024-03-22T12:59:05;18.83;;;8.45;;
71435;SDS011;59251;51.326;12.370;2024-03-22T13:01:32;20.20;;;10.20;;
71435;SDS011;59251;51.326;12.370;2024-03-22T13:03:59;22.90;;;8.48;;
71435;SDS011;59251;51.326;12.370;2024-03-22T13:06:25;19.63;;;8.85;;
71435;SDS011;59251;51.326;12.370;2024-03-22T13:08:51;20.77;;;8.75;;
71435;SDS011;59251;51.326;12.370;2024-03-22T13:11:17;19.07;;;8.50;;
71435;SDS011;59251;51.326;12.370;2024-03-22T13:13:44;21.48;;;9.35;;
71435;SDS011;59251;51.326;12.370;2024-03-22T13:16:11;21.73;;;9.67;;
71435;SDS011;59251;51.326;12.370;2024-03-22T13:18:39;21.90;;;8.93;;
71435;SDS011;59251;51.326;12.370;2024-03-22T13:21:05;20.48;;;9.45;;
71435;SDS011;59251;51.326;12.370;2024-03-22T13:23:32;20.73;;;9.95;;
71435;SDS011;59251;51.326;12.370;2024-03-22T13:26:02;20.97;;;9.20;;
71435;SDS011;59251;51.326;12.370;2024-03-22T13:28:29;17.40;;;8.02;;
71435;SDS011;59251;51.326;12.370;2024-03-22T13:30:59;20.23;;;9.70;;
71435;SDS011;59251;51.326;12.370;2024-03-22T13:33:29;18.23;;;8.97;;
71435;SDS011;59251;51.326;12.370;2024-03-22T13:35:55;20.00;;;8.75;;
71435;SDS011;59251;51.326;12.370;2024-03-22T13:38:22;18.05;;;9.02;;
71435;SDS011;59251;51.326;12.370;2024-03-22T13:40:57;18.25;;;7.82;;
71435;SDS011;59251;51.326;12.370;2024-03-22T13:43:25;19.05;;;8.75;;
71435;SDS011;59251;51.326;12.370;2024-03-22T13:45:52;18.03;;;8.33;;
71435;SDS011;59251;51.326;12.370;2024-03-22T13:48:20;13.80;;;6.47;;
71435;SDS011;59251;51.326;12.370;2024-03-22T13:50:50;18.92;;;7.78;;
71435;SDS011;59251;51.326;12.370;2024-03-22T13:53:18;17.98;;;8.23;;
71435;SDS011;59251;51.326;12.370;2024-03-22T13:55:44;18.10;;;7.05;;
71435;SDS011;59251;51.326;12.370;2024-03-22T13:58:11;19.13;;;7.73;;
71435;SDS011;59251;51.326;12.370;2024-03-22T14:00:37;21.05;;;8.07;;
71435;SDS011;59251;51.326;12.370;2024-03-22T14:03:04;19.02;;;8.55;;
71435;SDS011;59251;51.326;12.370;2024-03-22T14:05:30;19.10;;;8.75;;
71435;SDS011;59251;51.326;12.370;2024-03-22T14:07:59;18.23;;;9.32;;
71435;SDS011;59251;51.326;12.370;2024-03-22T14:10:25;19.37;;;8.37;;
71435;SDS011;59251;51.326;12.370;2024-03-22T14:12:53;17.13;;;7.70;;
71435;SDS011;59251;51.326;12.370;2024-03-22T14:15:18;16.40;;;7.88;;
71435;SDS011;59251;51.326;12.370;2024-03-22T14:17:45;16.25;;;7.20;;